Time;durP1;ratioP1;P1;durP2;ratioP2;P2;SDS_P1;SDS_P2;PMS_P1;PMS_P2;Temp;Humidity;BMP_temperature;BMP_pressure;BME280_temperature;BME280_humidity;BME280_pressure;Samples;Min_cycle;Max_cycle;Signal;HPM_P1;HPM_P2
2023/08/14 00:00:56;;;;;;;5.20;4.07;;;;;;;17.72;100.00;99202.59;4935804;28;20062;-72
2023/08/14 00:03:21;;;;;;;7.30;4.38;;;;;;;17.76;100.00;99212.03;4936335;28;20520;-72
2023/08/14 00:05:50;;;;;;;6.55;4.10;;;;;;;17.73;100.00;99198.88;4936055;28;20054;-71
2023/08/14 00:08:23;;;;;;;5.32;3.92;;;;;;;17.76;100.00;99201.25;4919587;28;20058;-71
2023/08/14 00:10:49;;;;;;;8.50;4.38;;;;;;;17.65;100.00;99201.59;4936216;28;20038;-70
2023/08/14 00:13:18;;;;;;;6.15;4.32;;;;;;;17.60;100.00;99200.38;4946272;28;20054;-71
2023/08/14 00:15:48;;;;;;;6.18;4.95;;;;;;;17.54;100.00;99225.28;4935305;28;20037;-70
2023/08/14 00:18:38;;;;;;;4.68;4.10;;;;;;;17.56;100.00;99199.84;4937400;28;20050;-73
2023/08/14 00:23:55;;;;;;;6.78;5.07;;;;;;;17.55;100.00;99195.47;4939342;28;20050;-67
2023/08/14 00:26:21;;;;;;;5.30;4.80;;;;;;;17.50;100.00;99192.41;4939957;28;20051;-66
2023/08/14 00:28:46;;;;;;;4.82;3.97;;;;;;;17.54;100.00;99190.22;4939627;28;20054;-66
2023/08/14 00:31:12;;;;;;;5.57;4.70;;;;;;;17.57;100.00;99188.06;4938412;28;20063;-68
2023/08/14 00:33:38;;;;;;;7.13;4.55;;;;;;;17.61;100.00;99210.13;4940028;28;20042;-66
2023/08/14 00:38:54;;;;;;;6.38;5.30;;;;;;;17.53;100.00;99186.69;4935747;28;20042;-68
2023/08/14 00:41:20;;;;;;;4.47;4.05;;;;;;;17.54;100.00;99188.38;4937417;28;20433;-67
2023/08/14 00:43:47;;;;;;;7.15;4.40;;;;;;;17.63;100.00;99187.41;4935357;28;20061;-67
2023/08/14 00:46:13;;;;;;;6.55;5.18;;;;;;;17.59;100.00;99191.44;4950630;28;20058;-68
2023/08/14 00:48:40;;;;;;;9.23;4.80;;;;;;;17.60;100.00;99186.91;4935632;28;20442;-68
2023/08/14 00:51:06;;;;;;;6.47;4.43;;;;;;;17.62;100.00;99182.16;4938422;28;20046;-68
2023/08/14 00:53:31;;;;;;;6.60;5.13;;;;;;;17.60;100.00;99187.75;4950045;28;20039;-67
2023/08/14 00:56:00;;;;;;;9.25;4.75;;;;;;;17.64;100.00;99177.47;4921394;28;20042;-67
2023/08/14 00:58:26;;;;;;;7.95;5.20;;;;;;;17.63;100.00;99176.63;4935900;28;20043;-68
2023/08/14 01:00:52;;;;;;;6.07;4.70;;;;;;;17.68;100.00;99179.69;4939235;28;20046;-69
2023/08/14 01:03:43;;;;;;;5.95;5.03;;;;;;;17.70;100.00;99176.84;4938888;28;20039;-68
2023/08/14 01:06:09;;;;;;;10.02;5.30;;;;;;;17.68;100.00;99174.28;4937437;28;20526;-67
2023/08/14 01:12:25;;;;;;;7.60;4.82;;;;;;;17.80;100.00;99171.28;4934132;28;20047;-69
2023/08/14 01:14:59;;;;;;;5.15;4.13;;;;;;;17.76;100.00;99162.66;4882832;29;20047;-68
2023/08/14 01:17:35;;;;;;;5.70;4.40;;;;;;;17.74;100.00;99162.00;4880835;29;20059;-68
2023/08/14 01:20:02;;;;;;;9.35;4.85;;;;;;;17.70;100.00;99150.72;4882615;29;20058;-68
2023/08/14 01:22:58;;;;;;;9.23;5.57;;;;;;;17.80;100.00;99152.41;4896899;29;20070;-68
2023/08/14 01:25:31;;;;;;;6.50;4.40;;;;;;;17.75;100.00;99166.38;4897693;29;20055;-68
2023/08/14 01:27:59;;;;;;;4.78;4.28;;;;;;;17.69;100.00;99164.34;4911146;29;20124;-68
2023/08/14 01:30:25;;;;;;;4.65;4.15;;;;;;;17.68;100.00;99157.28;4904973;29;20042;-68
2023/08/14 01:32:52;;;;;;;6.95;4.60;;;;;;;17.67;100.00;99161.81;4893469;29;20542;-67
2023/08/14 01:35:22;;;;;;;4.97;3.97;;;;;;;17.66;100.00;99170.06;4884812;29;20047;-70
2023/08/14 01:37:55;;;;;;;5.10;4.50;;;;;;;17.67;100.00;99167.22;4896765;29;20055;-68
2023/08/14 01:40:40;;;;;;;4.30;3.90;;;;;;;17.76;100.00;99166.22;4897719;29;20424;-68
2023/08/14 01:43:12;;;;;;;6.70;4.07;;;;;;;17.69;100.00;99158.97;4882384;29;20667;-68
2023/08/14 01:45:40;;;;;;;5.53;4.00;;;;;;;17.70;100.00;99166.88;4896385;29;20066;-67
2023/08/14 01:48:09;;;;;;;3.65;3.35;;;;;;;17.72;100.00;99174.78;4879426;29;20055;-69
2023/08/14 01:51:04;;;;;;;5.35;3.92;;;;;;;17.73;100.00;99169.22;4881440;29;20047;-69
2023/08/14 01:53:33;;;;;;;4.47;3.40;;;;;;;17.68;100.00;99195.88;4936234;28;20418;-70
2023/08/14 01:56:00;;;;;;;4.35;3.88;;;;;;;17.72;100.00;99164.00;4927890;28;20058;-69
2023/08/14 01:58:30;;;;;;;5.72;3.95;;;;;;;17.68;100.00;99178.84;4937027;28;20115;-68
2023/08/14 02:00:57;;;;;;;4.88;4.03;;;;;;;17.62;100.00;99195.63;4936904;28;20053;-67
2023/08/14 02:03:25;;;;;;;6.13;3.72;;;;;;;17.56;100.00;99175.59;4952692;28;20502;-68
2023/08/14 02:05:52;;;;;;;8.02;4.05;;;;;;;17.50;100.00;99181.63;4936962;28;20047;-69
2023/08/14 02:08:17;;;;;;;5.82;3.72;;;;;;;17.46;100.00;99180.28;4936102;28;20054;-68
2023/08/14 02:10:46;;;;;;;3.92;3.58;;;;;;;17.49;100.00;99184.50;4917792;28;20057;-68
2023/08/14 02:13:15;;;;;;;4.43;3.67;;;;;;;17.44;100.00;99174.22;4920120;28;20057;-67
2023/08/14 02:15:44;;;;;;;5.95;4.07;;;;;;;17.46;100.00;99191.06;4904413;28;20053;-67
2023/08/14 02:18:13;;;;;;;6.47;3.30;;;;;;;17.43;100.00;99170.66;4945782;28;20042;-70
2023/08/14 02:20:49;;;;;;;4.68;3.47;;;;;;;17.47;100.00;99187.38;4935073;28;20135;-68
2023/08/14 02:23:18;;;;;;;3.50;3.03;;;;;;;17.45;100.00;99175.06;4920145;28;20047;-67
2023/08/14 02:25:43;;;;;;;4.95;3.38;;;;;;;17.48;100.00;99183.66;4936580;28;20054;-69
2023/08/14 02:28:10;;;;;;;4.25;3.72;;;;;;;17.48;100.00;99180.97;4936861;28;20047;-70
2023/08/14 02:30:41;;;;;;;4.53;2.95;;;;;;;17.52;100.00;99185.00;4916761;28;20062;-76
2023/08/14 02:33:13;;;;;;;4.13;3.63;;;;;;;17.54;100.00;99209.09;4918313;28;20051;-70
2023/08/14 02:35:39;;;;;;;4.15;3.45;;;;;;;17.53;100.00;99196.63;4936883;28;20035;-71
2023/08/14 02:38:06;;;;;;;4.30;3.58;;;;;;;17.57;100.00;99189.91;4936335;28;20039;-70
2023/08/14 02:40:31;;;;;;;4.63;3.35;;;;;;;17.58;100.00;99186.22;4936468;28;20042;-70
2023/08/14 02:43:02;;;;;;;4.47;2.80;;;;;;;17.59;100.00;99191.44;4934786;28;20065;-70
2023/08/14 02:45:29;;;;;;;3.00;2.80;;;;;;;17.64;100.00;99216.06;4934366;28;20418;-70
2023/08/14 02:47:55;;;;;;;4.10;2.85;;;;;;;17.68;100.00;99195.03;4936173;28;20051;-70
2023/08/14 02:50:21;;;;;;;3.92;2.30;;;;;;;17.67;100.00;99194.19;4935965;28;20050;-69
2023/08/14 02:52:51;;;;;;;3.45;3.08;;;;;;;17.72;100.00;99197.19;4937645;28;20063;-70
2023/08/14 02:55:18;;;;;;;3.35;3.05;;;;;;;17.74;100.00;99184.41;4935944;28;20050;-70
2023/08/14 02:57:43;;;;;;;5.05;3.33;;;;;;;17.77;100.00;99189.47;4937444;28;20042;-71
2023/08/14 03:00:15;;;;;;;4.10;3.53;;;;;;;17.86;100.00;99202.94;4920582;28;20046;-71
2023/08/14 03:02:41;;;;;;;4.22;3.58;;;;;;;17.92;100.00;99199.59;4935562;28;20047;-71
2023/08/14 03:05:09;;;;;;;4.80;3.55;;;;;;;18.00;100.00;99194.22;4936306;28;20049;-71
2023/08/14 03:10:30;;;;;;;6.13;4.05;;;;;;;18.05;100.00;99192.72;4947408;28;20047;-69
2023/08/14 03:13:03;;;;;;;4.93;3.80;;;;;;;18.08;100.00;99196.91;4937201;28;20046;-70
2023/08/14 03:15:56;;;;;;;5.32;3.58;;;;;;;18.10;100.00;99192.19;4937478;28;20058;-71
2023/08/14 03:18:23;;;;;;;5.95;4.18;;;;;;;18.12;100.00;99190.16;4935631;28;20055;-71
2023/08/14 03:23:41;;;;;;;5.75;4.70;;;;;;;18.20;100.00;99200.97;4935211;28;20050;-70
2023/08/14 03:26:10;;;;;;;6.00;4.10;;;;;;;18.27;100.00;99191.19;4935618;28;20057;-71
2023/08/14 03:28:35;;;;;;;5.93;4.15;;;;;;;18.31;100.00;99187.13;4935642;28;20050;-70
2023/08/14 03:31:02;;;;;;;6.97;4.25;;;;;;;18.35;100.00;99190.34;4935627;28;20062;-70
2023/08/14 03:33:31;;;;;;;6.82;3.88;;;;;;;18.38;100.00;99182.75;4935579;28;20038;-70
2023/08/14 03:35:56;;;;;;;4.55;3.83;;;;;;;18.41;100.00;99193.19;4935404;28;20047;-71
2023/08/14 03:41:13;;;;;;;3.90;3.30;;;;;;;18.42;100.00;99192.16;4919131;28;20061;-70
2023/08/14 03:43:40;;;;;;;6.47;4.30;;;;;;;18.40;100.00;99213.09;4934773;28;20050;-70
2023/08/14 03:46:07;;;;;;;5.85;4.00;;;;;;;18.42;100.00;99200.25;4919061;28;20058;-71
2023/08/14 03:48:37;;;;;;;4.90;4.07;;;;;;;18.39;100.00;99199.78;4934746;28;20450;-71
2023/08/14 03:51:06;;;;;;;4.38;3.88;;;;;;;18.33;100.00;99201.28;4939101;28;20536;-71
2023/08/14 03:53:33;;;;;;;5.10;4.15;;;;;;;18.37;100.00;99210.75;4940401;28;20050;-70
2023/08/14 03:56:03;;;;;;;6.55;3.45;;;;;;;18.38;100.00;99200.78;4940420;28;20046;-68
2023/08/14 03:58:32;;;;;;;5.55;4.70;;;;;;;18.40;100.00;99205.00;4938746;28;20046;-69
2023/08/14 04:01:00;;;;;;;6.63;5.05;;;;;;;18.37;100.00;99196.41;4939120;28;20058;-70
2023/08/14 04:03:26;;;;;;;6.60;4.70;;;;;;;18.38;100.00;99181.91;4922914;28;20050;-71
2023/08/14 04:05:56;;;;;;;7.30;5.25;;;;;;;18.42;100.00;99194.88;4938662;28;20644;-72
2023/08/14 04:08:47;;;;;;;8.50;5.38;;;;;;;18.51;100.00;99199.25;4939101;28;20134;-71
2023/08/14 04:11:13;;;;;;;7.78;5.40;;;;;;;18.49;100.00;99201.28;4936172;28;20054;-71
2023/08/14 04:13:38;;;;;;;7.85;5.90;;;;;;;18.49;100.00;99195.88;4921081;29;20394;-72
2023/08/14 04:16:05;;;;;;;7.03;5.53;;;;;;;18.54;100.00;99199.91;4904007;29;20047;-72
2023/08/14 04:18:30;;;;;;;8.57;6.57;;;;;;;18.54;100.00;99218.81;4935950;28;20058;-71
2023/08/14 04:20:56;;;;;;;9.05;6.50;;;;;;;18.55;100.00;99198.91;4921072;29;20542;-70
2023/08/14 04:23:24;;;;;;;7.30;6.15;;;;;;;18.56;100.00;99200.59;4919559;29;20410;-71
2023/08/14 04:25:51;;;;;;;7.38;6.35;;;;;;;18.56;100.00;99190.63;4919819;28;20157;-70
2023/08/14 04:28:47;;;;;;;9.07;7.10;;;;;;;18.64;100.00;99192.50;4930168;28;20054;-70
2023/08/14 04:31:14;;;;;;;8.65;6.43;;;;;;;18.74;100.00;99195.84;4938038;28;20054;-70
2023/08/14 04:33:42;;;;;;;7.97;6.07;;;;;;;18.75;100.00;99221.84;4922183;28;20050;-70
2023/08/14 04:36:11;;;;;;;8.52;6.13;;;;;;;18.85;100.00;99198.19;4922283;28;20066;-70
2023/08/14 04:38:41;;;;;;;11.18;6.03;;;;;;;18.92;100.00;99206.47;4938420;28;20053;-72
2023/08/14 04:41:10;;;;;;;7.90;6.22;;;;;;;18.95;100.00;99222.31;4938152;28;20050;-71
2023/08/14 04:43:37;;;;;;;8.40;6.28;;;;;;;19.01;99.45;99190.03;4938523;28;20530;-71
2023/08/14 04:46:10;;;;;;;11.48;5.75;;;;;;;19.12;99.08;99195.06;4922715;28;20045;-72
2023/08/14 04:48:36;;;;;;;8.82;6.00;;;;;;;19.15;98.33;99186.63;4921285;28;20050;-71
2023/08/14 04:51:02;;;;;;;8.15;6.63;;;;;;;19.13;96.75;99185.94;4938422;28;20054;-71
2023/08/14 04:53:29;;;;;;;9.18;6.35;;;;;;;19.10;95.68;99220.56;4934876;28;20050;-71
2023/08/14 04:55:55;;;;;;;8.75;6.47;;;;;;;19.09;95.19;99191.88;4928683;28;20058;-70
2023/08/14 04:58:47;;;;;;;7.60;6.45;;;;;;;19.16;95.32;99195.56;4953666;28;20037;-69
2023/08/14 05:01:16;;;;;;;9.75;7.20;;;;;;;19.08;94.96;99180.22;4921916;28;20051;-70
2023/08/14 05:03:41;;;;;;;8.50;6.47;;;;;;;19.09;95.29;99187.31;4921904;28;20046;-69
2023/08/14 05:06:08;;;;;;;10.05;8.30;;;;;;;19.11;94.95;99196.09;4937767;28;20058;-70
2023/08/14 05:08:34;;;;;;;11.02;6.85;;;;;;;19.20;95.16;99191.47;4937880;28;20053;-71
2023/08/14 05:11:09;;;;;;;11.40;6.47;;;;;;;19.27;94.56;99187.06;4937188;28;20051;-70
2023/08/14 05:13:36;;;;;;;8.85;6.35;;;;;;;19.34;94.38;99204.25;4938915;28;20046;-71
2023/08/14 05:16:01;;;;;;;11.25;6.93;;;;;;;19.38;93.98;99197.50;4938983;28;20494;-71
2023/08/14 05:18:30;;;;;;;8.95;7.10;;;;;;;19.46;93.57;99210.13;4938301;28;20054;-70
2023/08/14 05:20:56;;;;;;;11.75;7.03;;;;;;;19.49;93.45;99199.00;4939610;28;20054;-70
2023/08/14 05:23:22;;;;;;;9.98;6.85;;;;;;;19.49;92.27;99201.69;4922049;28;20046;-70
2023/08/14 05:25:49;;;;;;;7.95;6.28;;;;;;;19.43;91.31;99205.91;4938897;28;20070;-70
2023/08/14 05:28:16;;;;;;;8.13;6.50;;;;;;;19.32;91.56;99200.03;4937051;28;20054;-70
2023/08/14 05:30:45;;;;;;;8.35;6.65;;;;;;;19.16;92.11;99207.22;4936759;28;20834;-71
2023/08/14 05:36:09;;;;;;;11.55;7.53;;;;;;;19.05;93.83;99207.59;4938747;28;20043;-70
2023/08/14 05:38:34;;;;;;;11.73;7.50;;;;;;;19.04;94.20;99199.66;4938895;28;20051;-70
2023/08/14 05:41:01;;;;;;;8.15;6.25;;;;;;;19.10;94.96;99204.34;4938305;28;20038;-70
2023/08/14 05:43:29;;;;;;;6.47;5.57;;;;;;;19.11;94.87;99225.81;4937372;28;20058;-69
2023/08/14 05:45:56;;;;;;;7.72;5.93;;;;;;;19.15;94.91;99212.78;4940059;28;20152;-71
2023/08/14 05:48:23;;;;;;;7.93;6.32;;;;;;;19.14;94.75;99221.91;4940317;28;20119;-70
2023/08/14 05:50:52;;;;;;;8.85;6.40;;;;;;;19.16;94.21;99212.63;4942700;28;20034;-70
2023/08/14 05:53:18;;;;;;;8.00;5.72;;;;;;;19.11;94.06;99206.88;4963646;28;20035;-69
2023/08/14 05:55:46;;;;;;;9.65;7.00;;;;;;;19.09;94.24;99245.91;4927089;28;20064;-70
2023/08/14 05:58:38;;;;;;;8.90;5.68;;;;;;;19.25;94.60;99220.69;4926049;28;20054;-69
2023/08/14 06:01:09;;;;;;;8.30;6.25;;;;;;;19.18;94.88;99217.84;4940850;28;20054;-69
2023/08/14 06:03:39;;;;;;;9.07;6.05;;;;;;;19.31;94.98;99238.91;4939542;28;20070;-69
2023/08/14 06:06:10;;;;;;;8.27;6.10;;;;;;;19.40;94.39;99233.31;4919158;29;20526;-70
2023/08/14 06:09:03;;;;;;;8.05;5.75;;;;;;;19.62;93.94;99247.94;4918967;29;20414;-70
2023/08/14 06:11:29;;;;;;;14.68;6.93;;;;;;;19.55;92.75;99255.91;4937907;28;20043;-69
2023/08/14 06:13:55;;;;;;;10.18;6.00;;;;;;;19.66;92.14;99234.88;4936074;28;20053;-71
2023/08/14 06:16:24;;;;;;;9.00;6.22;;;;;;;19.71;92.22;99235.19;4936600;28;20043;-70
2023/08/14 06:18:50;;;;;;;10.27;7.25;;;;;;;19.75;91.37;99242.75;4937867;28;20043;-70
2023/08/14 06:21:15;;;;;;;11.10;6.10;;;;;;;19.89;91.29;99244.72;4937966;28;20047;-75
2023/08/14 06:23:44;;;;;;;11.05;6.30;;;;;;;20.11;90.95;99245.75;4938016;28;20053;-73
2023/08/14 06:29:04;;;;;;;10.88;6.32;;;;;;;20.93;87.24;99237.78;4937683;28;20517;-74
2023/08/14 06:31:32;;;;;;;7.80;6.25;;;;;;;22.05;86.84;99233.84;4936293;28;20058;-73
2023/08/14 06:33:58;;;;;;;8.50;6.00;;;;;;;23.43;80.22;99251.28;4936191;28;20801;-74
2023/08/14 06:36:24;;;;;;;8.30;5.78;;;;;;;24.53;71.61;99221.03;4937716;28;20525;-74
2023/08/14 06:38:53;;;;;;;7.30;5.35;;;;;;;25.01;68.32;99228.16;4937886;28;20049;-75
2023/08/14 06:41:18;;;;;;;9.65;6.15;;;;;;;24.88;67.56;99229.81;4937763;28;20045;-74
2023/08/14 06:43:47;;;;;;;8.50;6.53;;;;;;;24.56;67.86;99231.53;4937769;28;20406;-74
2023/08/14 06:46:12;;;;;;;8.88;6.47;;;;;;;24.21;68.69;99240.88;4937423;28;20062;-73
2023/08/14 06:48:40;;;;;;;9.77;6.50;;;;;;;23.83;69.52;99235.97;4936310;28;20505;-72
2023/08/14 06:51:06;;;;;;;8.23;6.78;;;;;;;23.43;71.09;99240.38;4937550;28;20074;-74
2023/08/14 06:56:30;;;;;;;8.98;6.70;;;;;;;22.72;73.26;99252.44;4936459;28;20054;-74
2023/08/14 06:58:59;;;;;;;8.70;6.72;;;;;;;22.39;73.94;99257.59;4935766;28;20042;-73
2023/08/14 07:01:25;;;;;;;9.52;6.60;;;;;;;22.15;75.35;99266.09;4936054;28;20058;-74
2023/08/14 07:04:16;;;;;;;8.45;6.68;;;;;;;22.07;75.97;99270.63;4937437;28;20051;-74
2023/08/14 07:06:42;;;;;;;8.50;7.50;;;;;;;21.78;76.53;99273.41;4936229;28;20042;-74
2023/08/14 07:09:09;;;;;;;8.23;6.85;;;;;;;21.63;77.51;99273.44;4937161;28;20520;-74
2023/08/14 07:11:38;;;;;;;9.25;6.72;;;;;;;21.47;77.68;99284.47;4937274;28;20054;-72
2023/08/14 07:14:06;;;;;;;10.95;7.13;;;;;;;21.30;78.27;99293.84;4936396;28;20073;-74
2023/08/14 07:16:57;;;;;;;9.95;6.65;;;;;;;21.18;79.02;99290.75;4936927;28;20042;-71
2023/08/14 07:19:25;;;;;;;10.07;6.70;;;;;;;21.07;79.51;99303.88;4935291;28;20425;-71
2023/08/14 07:22:16;;;;;;;7.90;6.30;;;;;;;20.99;80.01;99293.97;4937136;28;20043;-71
2023/08/14 07:24:46;;;;;;;8.38;7.00;;;;;;;20.88;80.26;99306.06;4936471;28;20038;-71
2023/08/14 07:27:14;;;;;;;11.27;7.88;;;;;;;20.83;80.92;99300.38;4936995;28;20069;-71
2023/08/14 07:29:43;;;;;;;9.35;6.70;;;;;;;20.75;80.95;99296.91;4937045;28;20043;-72
2023/08/14 07:32:10;;;;;;;8.95;6.90;;;;;;;20.70;81.19;99297.44;4936727;28;20058;-72
2023/08/14 07:34:35;;;;;;;11.20;7.82;;;;;;;20.71;81.57;99303.72;4937098;28;20061;-71
2023/08/14 07:37:25;;;;;;;11.82;7.20;;;;;;;20.72;81.56;99305.41;4937039;28;20073;-71
2023/08/14 07:42:46;;;;;;;19.83;6.70;;;;;;;20.73;81.61;99328.75;4919734;28;20066;-69
2023/08/14 07:45:11;;;;;;;7.45;5.72;;;;;;;20.76;81.76;99312.97;4917646;29;20058;-71
2023/08/14 07:50:29;;;;;;;9.07;6.80;;;;;;;20.73;81.21;99324.19;4917779;29;20047;-71
2023/08/14 07:52:56;;;;;;;9.13;6.30;;;;;;;20.72;81.35;99327.06;4915700;29;20062;-71
2023/08/14 07:55:25;;;;;;;9.90;6.47;;;;;;;20.76;81.43;99339.22;4920525;28;20520;-71
2023/08/14 07:58:18;;;;;;;10.70;6.30;;;;;;;21.00;81.84;99336.28;4936564;28;20053;-71
2023/08/14 08:00:44;;;;;;;8.98;6.50;;;;;;;20.94;81.10;99321.63;4936479;28;20414;-71
2023/08/14 08:03:09;;;;;;;12.88;6.60;;;;;;;20.88;80.44;99327.75;4936585;28;20057;-71
2023/08/14 08:05:37;;;;;;;8.18;6.25;;;;;;;20.85;80.40;99338.13;4935521;28;20600;-71
2023/08/14 08:08:28;;;;;;;11.02;6.20;;;;;;;20.92;81.19;99350.75;4936424;28;20525;-71
2023/08/14 08:10:54;;;;;;;9.13;6.47;;;;;;;20.80;81.24;99337.81;4936202;28;20050;-72
2023/08/14 08:13:25;;;;;;;8.98;6.30;;;;;;;20.77;81.49;99351.75;4936416;28;20050;-71
2023/08/14 08:15:52;;;;;;;6.82;6.07;;;;;;;20.78;82.21;99346.13;4919085;28;20396;-71
2023/08/14 08:18:17;;;;;;;8.75;6.55;;;;;;;20.89;82.14;99344.84;4936766;28;20050;-70
2023/08/14 08:20:42;;;;;;;8.05;6.25;;;;;;;21.00;81.99;99342.53;4935168;28;20047;-71
2023/08/14 08:23:07;;;;;;;8.07;6.50;;;;;;;21.08;81.54;99343.50;4936256;28;20047;-71
2023/08/14 08:28:25;;;;;;;8.88;6.53;;;;;;;21.15;80.47;99345.28;4918246;28;20151;-71
2023/08/14 08:30:54;;;;;;;7.38;5.95;;;;;;;21.21;80.73;99339.19;4934517;28;20051;-70
2023/08/14 08:33:22;;;;;;;12.70;7.18;;;;;;;21.42;81.13;99338.44;4919665;28;20054;-71
2023/08/14 08:36:13;;;;;;;8.77;6.53;;;;;;;21.81;79.41;99340.84;4919312;28;20062;-71
2023/08/14 08:41:34;;;;;;;8.82;6.60;;;;;;;21.96;76.78;99354.41;4937934;28;20043;-71
2023/08/14 08:44:24;;;;;;;11.95;6.22;;;;;;;21.96;76.38;99346.28;4939622;28;20046;-71
2023/08/14 08:47:22;;;;;;;10.27;6.43;;;;;;;21.87;76.08;99355.56;4931286;28;20053;-70
2023/08/14 08:49:52;;;;;;;8.82;6.70;;;;;;;21.62;76.49;99384.84;4864668;29;20479;-71
2023/08/14 08:55:34;;;;;;;9.40;7.05;;;;;;;21.49;77.56;99369.22;4880595;29;20044;-72
2023/08/14 08:58:03;;;;;;;6.90;6.13;;;;;;;21.48;77.81;99374.81;4881185;29;20407;-72
2023/08/14 09:00:29;;;;;;;7.68;6.20;;;;;;;21.54;78.27;99393.06;4864320;29;20067;-73
2023/08/14 09:02:54;;;;;;;6.13;5.53;;;;;;;21.62;78.20;99360.44;4880090;29;20052;-72
2023/08/14 09:05:20;;;;;;;8.40;6.13;;;;;;;21.74;77.76;99369.78;4880346;29;20044;-73
2023/08/14 09:07:47;;;;;;;7.28;6.20;;;;;;;21.86;76.99;99381.00;4880500;29;20055;-72
2023/08/14 09:10:22;;;;;;;9.40;6.28;;;;;;;21.89;76.88;99375.22;4880080;29;20091;-73
2023/08/14 09:12:55;;;;;;;11.13;6.53;;;;;;;21.88;76.19;99401.50;4880040;29;20526;-72
2023/08/14 09:15:25;;;;;;;10.65;6.32;;;;;;;21.84;76.36;99391.19;4864807;29;20043;-72
2023/08/14 09:18:19;;;;;;;9.57;6.50;;;;;;;21.89;76.47;99386.06;4880032;29;20067;-74
2023/08/14 09:20:45;;;;;;;10.20;6.60;;;;;;;21.91;75.82;99390.25;4879848;29;20152;-72
2023/08/14 09:23:12;;;;;;;9.13;6.25;;;;;;;21.93;75.67;99390.91;4879935;29;20063;-72
2023/08/14 09:25:46;;;;;;;6.97;6.28;;;;;;;21.99;75.98;99390.22;4890420;29;20537;-72
2023/08/14 09:28:12;;;;;;;8.27;6.47;;;;;;;21.97;75.73;99394.09;4919792;29;20422;-72
2023/08/14 09:30:40;;;;;;;9.80;6.55;;;;;;;21.92;75.37;99393.81;4919578;29;20063;-73
2023/08/14 09:33:09;;;;;;;8.80;6.82;;;;;;;21.85;76.07;99401.88;4919988;29;20047;-72
2023/08/14 09:35:35;;;;;;;7.50;6.07;;;;;;;21.73;75.71;99423.22;4919690;29;20383;-71
2023/08/14 09:38:02;;;;;;;12.23;6.60;;;;;;;21.63;76.16;99435.38;4902324;28;20051;-72
2023/08/14 09:40:32;;;;;;;9.00;5.93;;;;;;;21.54;76.78;99437.31;4902028;29;20058;-71
2023/08/14 09:42:57;;;;;;;8.70;6.15;;;;;;;21.50;76.65;99419.72;4927282;28;20406;-72
2023/08/14 09:45:34;;;;;;;7.38;6.43;;;;;;;21.45;77.25;99418.56;4938525;28;20126;-71
2023/08/14 09:48:01;;;;;;;8.30;5.70;;;;;;;21.46;77.38;99423.81;4937679;28;20050;-72
2023/08/14 09:50:31;;;;;;;6.43;5.35;;;;;;;21.50;77.29;99435.16;4938448;28;20046;-71
2023/08/14 09:52:58;;;;;;;6.78;6.05;;;;;;;21.55;76.96;99420.03;4944622;28;20054;-72
2023/08/14 09:55:29;;;;;;;9.13;5.97;;;;;;;21.63;76.91;99424.50;4957745;28;20441;-70
2023/08/14 09:57:58;;;;;;;8.77;6.40;;;;;;;21.67;76.59;99442.13;4937707;28;20058;-72
2023/08/14 10:00:33;;;;;;;8.02;6.75;;;;;;;21.73;76.00;99435.94;4933802;28;20050;-72
2023/08/14 10:03:00;;;;;;;10.32;6.65;;;;;;;21.78;76.50;99433.50;4935662;28;20062;-72
2023/08/14 10:08:18;;;;;;;8.15;6.38;;;;;;;22.19;75.32;99435.78;4933935;28;20050;-72
2023/08/14 10:10:44;;;;;;;8.30;6.18;;;;;;;22.34;74.12;99433.88;4937157;28;20042;-72
2023/08/14 10:13:14;;;;;;;8.48;6.20;;;;;;;22.52;74.09;99431.59;4935540;28;20035;-74
2023/08/14 10:15:46;;;;;;;7.22;6.32;;;;;;;22.80;73.24;99434.41;4934917;28;20051;-74
2023/08/14 10:21:18;;;;;;;9.13;5.78;;;;;;;23.17;70.77;99436.88;4926671;28;20050;-74
2023/08/14 10:24:11;;;;;;;7.28;5.90;;;;;;;23.15;70.49;99438.97;4935716;28;20050;-73
2023/08/14 10:26:38;;;;;;;15.45;6.22;;;;;;;23.07;70.63;99462.72;4936097;28;20046;-73
2023/08/14 10:31:56;;;;;;;9.70;6.45;;;;;;;22.87;70.84;99440.78;4935906;28;20051;-71
2023/08/14 10:34:23;;;;;;;6.72;5.63;;;;;;;22.77;71.46;99445.69;4937701;28;20038;-70
2023/08/14 10:36:56;;;;;;;9.63;6.50;;;;;;;22.70;71.75;99444.72;4942012;28;20387;-72
2023/08/14 10:39:35;;;;;;;9.40;6.28;;;;;;;22.76;72.11;99460.31;4952545;28;20035;-69
2023/08/14 10:42:05;;;;;;;8.48;6.10;;;;;;;22.81;71.89;99458.69;4960501;28;20053;-71
2023/08/14 10:44:35;;;;;;;10.13;6.63;;;;;;;22.93;71.50;99445.44;4944211;28;20057;-73
2023/08/14 10:47:09;;;;;;;10.65;6.57;;;;;;;22.95;71.38;99448.81;4941926;28;20050;-73
2023/08/14 10:49:44;;;;;;;9.13;6.90;;;;;;;22.93;71.34;99455.47;4942305;28;20162;-71
2023/08/14 10:52:16;;;;;;;9.20;6.97;;;;;;;22.84;71.06;99459.34;4937095;28;20053;-73
2023/08/14 10:54:44;;;;;;;10.43;7.05;;;;;;;22.78;71.25;99453.66;4938300;28;20050;-71
2023/08/14 10:57:36;;;;;;;13.82;7.88;;;;;;;22.79;71.70;99455.34;4938536;28;20484;-71
2023/08/14 11:03:08;;;;;;;11.40;7.38;;;;;;;23.26;71.02;99448.47;4937097;28;20413;-71
2023/08/14 11:05:59;;;;;;;;;;;;;;;23.78;71.26;99448.09;4936342;28;20524;-70
2023/08/14 11:08:28;;;;;;;10.90;7.30;;;;;;;24.03;69.60;99440.28;4937294;28;19965;-68
2023/08/14 11:10:54;;;;;;;9.57;7.90;;;;;;;24.34;68.06;99472.53;4936951;28;20042;-68
2023/08/14 11:16:38;;;;;;;9.13;7.53;;;;;;;25.25;64.82;99443.03;4937035;28;20406;-69
2023/08/14 11:19:04;;;;;;;11.73;7.50;;;;;;;25.59;63.47;99429.19;4936879;28;20419;-66
2023/08/14 11:21:34;;;;;;;9.18;7.38;;;;;;;25.96;62.50;99448.69;4935686;28;20069;-66
2023/08/14 11:24:00;;;;;;;11.75;8.13;;;;;;;26.12;61.80;99456.41;4936058;28;20600;-68
2023/08/14 11:26:30;;;;;;;8.93;7.20;;;;;;;26.07;60.33;99444.47;5100519;23;20432;-68
2023/08/14 11:28:56;;;;;;;10.10;7.50;;;;;;;25.80;60.59;99474.56;4953931;28;20054;-68
2023/08/14 11:34:23;;;;;;;8.90;6.93;;;;;;;25.58;61.51;99448.50;4954762;28;20042;-68
2023/08/14 11:37:15;;;;;;;12.60;7.22;;;;;;;25.57;61.42;99464.03;4955516;28;20812;-67
2023/08/14 11:39:44;;;;;;;9.25;7.78;;;;;;;25.55;61.04;99465.28;4956589;28;20042;-67
2023/08/14 11:42:11;;;;;;;14.88;7.50;;;;;;;25.47;61.27;99466.34;4949011;28;20058;-67
2023/08/14 11:50:46;;;;;;;8.27;7.38;;;;;;;25.25;62.53;99453.94;4956067;28;20046;-68
2023/08/14 11:53:13;;;;;;;9.70;7.40;;;;;;;25.31;62.89;99447.66;4955248;28;20667;-68
2023/08/14 11:55:39;;;;;;;10.10;8.18;;;;;;;25.37;62.47;99451.44;4956308;28;20038;-68
2023/08/14 11:58:04;;;;;;;10.45;7.70;;;;;;;25.42;62.53;99457.09;4956121;28;20061;-68
2023/08/14 12:00:36;;;;;;;9.27;7.45;;;;;;;25.50;62.28;99451.44;4954299;28;20235;-65
2023/08/14 12:03:03;;;;;;;8.60;7.53;;;;;;;25.59;61.80;99455.63;4960359;28;20419;-66
2023/08/14 12:05:31;;;;;;;9.13;7.30;;;;;;;25.64;60.68;99459.44;4964001;28;20042;-65
2023/08/14 12:08:00;;;;;;;10.32;7.63;;;;;;;25.62;60.41;99471.63;4974309;28;20052;-66
2023/08/14 12:10:32;;;;;;;12.32;7.10;;;;;;;25.46;61.00;99458.38;4975395;28;20049;-67
2023/08/14 12:13:00;;;;;;;9.88;7.43;;;;;;;25.19;61.59;99461.06;4977340;28;20053;-66
2023/08/14 12:15:28;;;;;;;9.52;7.75;;;;;;;24.88;62.33;99453.44;4978911;28;20052;-67
2023/08/14 12:17:53;;;;;;;9.82;7.53;;;;;;;24.63;63.35;99454.19;4977566;28;20045;-67
2023/08/14 12:20:20;;;;;;;13.98;7.55;;;;;;;24.44;63.73;99483.91;4978416;28;20068;-67
2023/08/14 12:23:35;;;;;;;13.25;7.50;;;;;;;24.40;63.96;99462.69;4977009;28;20420;-66
2023/08/14 12:26:26;;;;;;;7.90;6.65;;;;;;;24.10;64.62;99462.09;4939215;28;20059;-67
2023/08/14 12:28:51;;;;;;;9.77;7.10;;;;;;;23.94;65.24;99493.19;4975800;28;20041;-67
2023/08/14 12:31:16;;;;;;;10.63;7.50;;;;;;;23.83;65.52;99469.25;4977505;28;20038;-67
2023/08/14 12:33:42;;;;;;;10.85;7.15;;;;;;;23.66;65.97;99462.44;4959046;28;20042;-66
2023/08/14 12:36:36;;;;;;;10.77;6.82;;;;;;;23.62;66.79;99462.00;4977618;28;20048;-67
2023/08/14 12:39:03;;;;;;;8.97;6.77;;;;;;;23.41;67.22;99464.72;4966706;28;20499;-67
2023/08/14 12:41:29;;;;;;;10.52;7.55;;;;;;;23.38;67.47;99476.81;4991916;28;20279;-65
2023/08/14 12:44:00;;;;;;;14.93;7.25;;;;;;;23.44;68.31;99470.63;4993402;28;20053;-66
2023/08/14 12:46:28;;;;;;;10.70;6.88;;;;;;;23.57;68.43;99480.81;4975355;28;20046;-68
2023/08/14 12:49:21;;;;;;;9.50;6.35;;;;;;;23.78;68.05;99466.31;4944206;28;20069;-68